createdAt,value
2019-01-19T00:00:46.050Z,1.94
2019-01-19T00:07:08.884Z,1.93
2019-01-19T00:09:19.272Z,1.92
2019-01-19T00:10:29.543Z,1.93
2019-01-19T00:16:35.993Z,1.93
2019-01-19T00:17:45.351Z,1.93
2019-01-19T00:18:57.149Z,1.91
2019-01-19T00:20:06.556Z,1.92
2019-01-19T00:22:47.759Z,1.91
2019-01-19T00:25:15.877Z,1.93
2019-01-19T00:27:38.992Z,1.93
2019-01-19T00:30:00.507Z,1.93
2019-01-19T00:31:21.929Z,1.93
2019-01-19T00:32:37.680Z,1.91
2019-01-19T00:37:20.980Z,1.93
2019-01-19T00:38:35.464Z,1.93
2019-01-19T00:43:04.224Z,1.90
2019-01-19T00:45:34.391Z,1.90
2019-01-19T00:47:48.488Z,1.91
2019-01-19T00:48:54.015Z,1.91
2019-01-19T00:51:05.085Z,1.92
2019-01-19T00:52:14.230Z,1.91
2019-01-19T00:54:42.782Z,1.90
2019-01-19T00:55:52.143Z,1.89
2019-01-19T00:57:00.455Z,1.89
2019-01-19T00:58:10.792Z,1.90
2019-01-19T01:00:26.947Z,1.88
2019-01-19T01:01:32.491Z,1.88
2019-01-19T01:03:49.435Z,1.87
2019-01-19T01:07:15.281Z,1.86
2019-01-19T01:08:33.831Z,1.84
2019-01-19T01:11:13.520Z,1.82
2019-01-19T01:12:20.084Z,1.81
2019-01-19T01:16:56.650Z,1.80
2019-01-19T01:18:02.184Z,1.79
2019-01-19T01:20:17.394Z,1.80
2019-01-19T01:22:56.512Z,1.80
2019-01-19T01:31:14.560Z,1.76
2019-01-19T01:32:23.996Z,1.75
2019-01-19T01:36:10.449Z,1.75
2019-01-19T01:38:27.643Z,1.74
2019-01-19T01:41:59.544Z,1.73
2019-01-19T01:44:32.534Z,1.71
2019-01-19T01:46:52.793Z,1.70
2019-01-19T01:48:04.167Z,1.70
2019-01-19T01:53:42.868Z,1.68
2019-01-19T01:54:49.324Z,1.68
2019-01-19T01:55:53.204Z,1.68
2019-01-19T01:58:06.595Z,1.63
2019-01-19T01:59:17.905Z,1.63
2019-01-19T02:00:23.431Z,1.64
2019-01-19T02:02:54.483Z,1.64
2019-01-19T02:05:09.613Z,1.60
2019-01-19T02:08:34.323Z,1.59
2019-01-19T02:11:58.532Z,1.60
2019-01-19T02:13:07.768Z,1.61
2019-01-19T02:14:15.305Z,1.59
2019-01-19T02:16:49.176Z,1.59
2019-01-19T02:19:22.049Z,1.57
2019-01-19T02:21:36.447Z,1.55
2019-01-19T02:24:59.313Z,1.56
2019-01-19T02:27:29.180Z,1.54
2019-01-19T02:28:34.725Z,1.54
2019-01-19T02:29:45.095Z,1.52
2019-01-19T02:30:53.266Z,1.53
2019-01-19T02:31:59.847Z,1.53
2019-01-19T02:35:37.936Z,1.52
2019-01-19T02:41:36.032Z,1.48
2019-01-19T02:42:43.151Z,1.49
2019-01-19T02:43:51.394Z,1.49
2019-01-19T02:44:56.922Z,1.48
2019-01-19T02:46:12.141Z,1.47
2019-01-19T02:48:29.538Z,1.46
2019-01-19T02:49:38.901Z,1.47
2019-01-19T02:51:57.111Z,1.45
2019-01-19T02:55:23.753Z,1.43
2019-01-19T02:56:33.069Z,1.41
2019-01-19T02:57:40.506Z,1.41
2019-01-19T02:58:46.686Z,1.40
2019-01-19T03:01:07.024Z,1.42
2019-01-19T03:07:53.818Z,1.39
2019-01-19T03:10:11.029Z,1.38
2019-01-19T03:14:50.841Z,1.36
2019-01-19T03:24:16.396Z,1.31
2019-01-19T03:28:00.260Z,1.31
2019-01-19T03:30:11.586Z,1.31
2019-01-19T03:32:34.049Z,1.29
2019-01-19T03:36:14.091Z,1.26
2019-01-19T03:37:20.424Z,1.27
2019-01-19T03:38:30.744Z,1.26
2019-01-19T03:42:31.685Z,1.22
2019-01-19T03:47:15.197Z,1.23
2019-01-19T03:48:20.724Z,1.20
2019-01-19T03:49:26.243Z,1.20
2019-01-19T03:51:44.268Z,1.20
2019-01-19T03:55:26.519Z,1.19
2019-01-19T03:59:12.735Z,1.15
2019-01-19T04:02:36.779Z,1.15
2019-01-19T04:03:47.260Z,1.14
2019-01-19T04:04:55.477Z,1.13
2019-01-19T04:08:31.279Z,1.11
2019-01-19T04:09:39.715Z,1.12
2019-01-19T04:10:55.235Z,1.11
2019-01-19T04:12:01.399Z,1.11
2019-01-19T04:15:28.256Z,1.08
2019-01-19T04:19:58.025Z,1.08
2019-01-19T04:22:10.319Z,1.06
2019-01-19T04:23:14.180Z,1.07
2019-01-19T04:25:25.364Z,1.06
2019-01-19T04:28:36.906Z,1.05
2019-01-19T04:29:40.799Z,1.04
2019-01-19T04:30:45.569Z,1.05
2019-01-19T04:31:49.424Z,1.05
2019-01-19T04:32:53.284Z,1.03
2019-01-19T04:35:00.349Z,1.02
2019-01-19T04:37:07.682Z,1.00
2019-01-19T04:42:24.585Z,0.99
2019-01-19T04:47:41.131Z,0.98
2019-01-19T04:49:48.171Z,0.96
2019-01-19T04:51:55.202Z,0.95
2019-01-19T04:52:59.073Z,0.93
2019-01-19T04:54:02.951Z,0.94
2019-01-19T04:55:07.072Z,0.93
2019-01-19T04:57:14.116Z,0.92
2019-01-19T04:58:18.049Z,0.91
2019-01-19T05:05:40.935Z,0.92
2019-01-19T05:06:45.031Z,0.91
2019-01-19T05:10:58.428Z,0.87
2019-01-19T05:13:05.541Z,0.88
2019-01-19T05:14:09.407Z,0.88
2019-01-19T05:19:27.396Z,0.85
2019-01-19T05:20:31.261Z,0.85
2019-01-19T05:23:41.468Z,0.87
2019-01-19T05:25:48.504Z,0.81
2019-01-19T05:27:55.621Z,0.82
2019-01-19T05:31:07.000Z,0.80
2019-01-19T05:32:10.843Z,0.80
2019-01-19T05:33:14.708Z,0.83
2019-01-19T05:34:18.883Z,0.81
2019-01-19T05:36:25.924Z,0.81
2019-01-19T05:46:59.275Z,0.79
2019-01-19T05:52:18.079Z,0.79
2019-01-19T05:53:21.979Z,0.77
2019-01-19T05:55:29.017Z,0.76
2019-01-19T05:56:32.873Z,0.74
2019-01-19T05:58:39.904Z,0.76
2019-01-19T06:02:53.802Z,0.73
2019-01-19T06:03:57.664Z,0.74
2019-01-19T06:08:11.286Z,0.70
2019-01-19T06:12:24.659Z,0.71
2019-01-19T06:13:28.960Z,0.71
2019-01-19T06:14:32.865Z,0.72
2019-01-19T06:15:36.724Z,0.71
2019-01-19T06:16:40.656Z,0.71
2019-01-19T06:17:44.523Z,0.70
2019-01-19T06:19:51.800Z,0.71
2019-01-19T06:20:58.567Z,0.72
2019-01-19T06:22:03.733Z,0.70
2019-01-19T06:24:10.759Z,0.72
2019-01-19T06:25:14.909Z,0.71
2019-01-19T06:29:28.292Z,0.69
2019-01-19T06:32:38.609Z,0.69
2019-01-19T06:33:42.586Z,0.68
2019-01-19T06:34:46.504Z,0.69
2019-01-19T06:36:55.062Z,0.69
2019-01-19T06:39:02.892Z,0.68
2019-01-19T06:46:28.422Z,0.69
2019-01-19T06:47:32.357Z,0.70
2019-01-19T06:48:36.221Z,0.71
2019-01-19T06:49:40.154Z,0.68
2019-01-19T06:54:56.951Z,0.67
2019-01-19T06:56:00.807Z,0.67
2019-01-19T06:59:17.308Z,0.68
2019-01-19T07:02:24.255Z,0.66
2019-01-19T07:06:37.695Z,0.67
2019-01-19T07:07:41.555Z,0.68
2019-01-19T07:10:52.722Z,0.66
2019-01-19T07:16:10.320Z,0.64
2019-01-19T07:18:17.366Z,0.64
2019-01-19T07:19:21.293Z,0.63
2019-01-19T07:21:29.600Z,0.65
2019-01-19T07:23:36.643Z,0.67
2019-01-19T07:24:40.508Z,0.69
2019-01-19T07:26:48.511Z,0.64
2019-01-19T07:27:52.478Z,0.66
2019-01-19T07:29:59.547Z,0.66
2019-01-19T07:33:10.676Z,0.66
2019-01-19T07:34:14.540Z,0.67
2019-01-19T07:40:34.259Z,0.65
2019-01-19T07:42:41.300Z,0.63
2019-01-19T07:44:48.349Z,0.63
2019-01-19T07:46:56.487Z,0.67
2019-01-19T07:48:00.353Z,0.68
2019-01-19T07:49:04.276Z,0.67
2019-01-19T07:54:22.328Z,0.72
2019-01-19T07:55:26.304Z,0.74
2019-01-19T07:57:33.307Z,0.75
2019-01-19T07:58:37.211Z,0.75
2019-01-19T07:59:41.065Z,0.78
2019-01-19T08:00:44.924Z,0.78
2019-01-19T08:01:48.791Z,0.81
2019-01-19T08:03:57.264Z,0.81
2019-01-19T08:07:08.392Z,0.82
2019-01-19T08:08:12.252Z,0.85
2019-01-19T08:09:16.108Z,0.84
2019-01-19T08:11:23.642Z,0.89
2019-01-19T08:12:27.538Z,0.92
2019-01-19T08:14:35.559Z,0.97
2019-01-19T08:17:47.252Z,1.00
2019-01-19T08:18:51.184Z,1.03
2019-01-19T08:19:55.715Z,1.04
2019-01-19T08:22:02.852Z,1.10
2019-01-19T08:23:06.707Z,1.13
2019-01-19T08:26:16.931Z,1.18
2019-01-19T08:28:25.003Z,1.20
2019-01-19T08:29:28.899Z,1.20
2019-01-19T08:31:35.951Z,1.22
2019-01-19T08:33:43.006Z,1.27
2019-01-19T08:41:07.228Z,1.40
2019-01-19T08:44:17.436Z,1.43
2019-01-19T08:49:34.647Z,1.48
2019-01-19T08:50:38.564Z,1.51
2019-01-19T08:52:45.600Z,1.56
2019-01-19T08:53:49.447Z,1.56
2019-01-19T08:54:54.522Z,1.61
2019-01-19T09:01:18.226Z,1.78
2019-01-19T09:02:22.167Z,1.84
2019-01-19T09:03:26.001Z,1.96
2019-01-19T09:06:36.199Z,2.10
2019-01-19T09:07:40.067Z,2.13
2019-01-19T09:08:43.937Z,2.14
2019-01-19T09:10:51.085Z,2.36
2019-01-19T09:14:01.306Z,2.60
2019-01-19T09:15:06.847Z,2.70
2019-01-19T09:17:13.875Z,2.89
2019-01-19T09:18:17.746Z,2.94
2019-01-19T09:21:27.960Z,3.12
2019-01-19T09:25:41.335Z,3.34
2019-01-19T09:27:48.364Z,3.60
2019-01-19T09:29:55.843Z,3.62
2019-01-19T09:30:59.708Z,3.59
2019-01-19T09:32:03.575Z,3.59
2019-01-19T09:34:10.683Z,3.54
2019-01-19T09:35:14.578Z,3.63
2019-01-19T09:36:18.471Z,3.72
2019-01-19T09:37:22.330Z,3.79
2019-01-19T09:38:27.708Z,3.85
2019-01-19T09:41:37.905Z,4.06
2019-01-19T09:43:44.956Z,4.11
2019-01-19T09:44:49.343Z,4.18
2019-01-19T09:46:56.379Z,4.26
2019-01-19T09:48:00.243Z,4.31
2019-01-19T09:49:04.107Z,4.36
2019-01-19T09:50:12.008Z,4.41
2019-01-19T09:52:21.301Z,4.42
2019-01-19T09:54:28.113Z,4.50
2019-01-19T09:58:42.417Z,4.81
2019-01-19T09:59:47.216Z,4.96
2019-01-19T10:01:54.251Z,5.26
2019-01-19T10:04:01.281Z,5.80
2019-01-19T10:05:07.564Z,6.30
2019-01-19T10:07:14.600Z,7.09
2019-01-19T10:08:18.478Z,7.56
2019-01-19T10:09:22.377Z,7.87
2019-01-19T10:10:26.368Z,7.98
2019-01-19T10:12:33.403Z,8.22
2019-01-19T10:15:44.635Z,8.15
2019-01-19T10:19:58.068Z,8.62
2019-01-19T10:31:35.643Z,6.92
2019-01-19T10:32:39.507Z,6.84
2019-01-19T10:33:43.416Z,6.76
2019-01-19T10:37:56.990Z,6.57
2019-01-19T10:40:06.851Z,6.62
2019-01-19T10:42:14.512Z,6.62
2019-01-19T10:43:18.360Z,6.64
2019-01-19T10:46:29.492Z,6.69
2019-01-19T10:47:33.464Z,6.67
2019-01-19T10:49:40.544Z,6.73
2019-01-19T10:51:47.577Z,6.75
2019-01-19T10:52:51.441Z,6.75
2019-01-19T10:53:55.427Z,6.70
2019-01-19T10:56:02.507Z,6.71
2019-01-19T10:57:06.362Z,6.75
2019-01-19T10:58:10.220Z,6.68
2019-01-19T10:59:14.099Z,6.71
2019-01-19T11:02:26.613Z,6.75
2019-01-19T11:06:40.181Z,6.52
2019-01-19T11:07:44.047Z,6.57
2019-01-19T11:10:55.286Z,6.63
2019-01-19T11:13:02.403Z,6.57
2019-01-19T11:15:11.080Z,6.59
2019-01-19T11:17:18.201Z,6.58
2019-01-19T11:20:29.475Z,6.72
2019-01-19T11:23:40.080Z,6.54
2019-01-19T11:24:45.219Z,6.55
2019-01-19T11:33:12.768Z,6.67
2019-01-19T11:34:16.662Z,6.73
2019-01-19T11:36:23.687Z,6.71
2019-01-19T11:40:37.787Z,6.87
2019-01-19T11:41:41.698Z,6.78
2019-01-19T11:42:46.048Z,6.86
2019-01-19T11:43:49.898Z,6.83
2019-01-19T11:45:56.978Z,6.78
2019-01-19T11:47:00.871Z,6.73
2019-01-19T11:49:08.036Z,6.69
2019-01-19T11:50:12.216Z,6.61
2019-01-19T11:53:22.415Z,6.62
2019-01-19T11:54:26.310Z,6.58
2019-01-19T11:55:30.173Z,6.62
2019-01-19T12:07:06.439Z,6.23
2019-01-19T12:10:22.835Z,6.07
2019-01-19T12:11:26.687Z,6.07
2019-01-19T12:12:30.548Z,6.11
2019-01-19T12:14:37.605Z,6.05
2019-01-19T12:16:44.640Z,6.07
2019-01-19T12:18:51.676Z,6.01
2019-01-19T12:19:55.543Z,5.97
2019-01-19T12:23:06.171Z,5.77
2019-01-19T12:24:10.945Z,5.81
2019-01-19T12:28:26.514Z,5.83
2019-01-19T12:36:53.095Z,5.74
2019-01-19T12:40:05.599Z,5.77
2019-01-19T12:41:09.477Z,5.71
2019-01-19T12:46:28.843Z,5.61
2019-01-19T12:49:39.064Z,5.67
2019-01-19T12:54:55.663Z,5.61
2019-01-19T12:55:59.515Z,5.62
2019-01-19T12:57:03.476Z,5.63
2019-01-19T12:58:07.947Z,5.66
2019-01-19T13:05:35.831Z,5.71
2019-01-19T13:06:40.673Z,5.76
2019-01-19T13:07:45.103Z,5.72
2019-01-19T13:08:48.992Z,5.78
2019-01-19T13:12:11.460Z,5.74
2019-01-19T13:13:15.383Z,5.80
2019-01-19T13:15:26.864Z,5.74
2019-01-19T13:16:36.304Z,5.79
2019-01-19T13:18:51.258Z,5.91
2019-01-19T13:19:56.775Z,6.00
2019-01-19T13:21:05.669Z,6.04
2019-01-19T13:22:12.131Z,6.13
2019-01-19T13:23:18.439Z,6.19
2019-01-19T13:24:28.121Z,6.22
2019-01-19T13:25:37.543Z,6.19
2019-01-19T13:31:08.123Z,6.25
2019-01-19T13:39:21.724Z,6.23
2019-01-19T13:40:48.252Z,6.22
2019-01-19T13:44:20.149Z,6.16
2019-01-19T13:46:34.220Z,6.17
2019-01-19T13:47:44.435Z,6.19
2019-01-19T13:50:22.628Z,6.10
2019-01-19T13:54:53.287Z,6.19
2019-01-19T13:56:02.660Z,6.23
2019-01-19T14:04:05.424Z,6.13
2019-01-19T14:07:47.433Z,6.07
2019-01-19T14:11:19.127Z,6.14
2019-01-19T14:12:24.743Z,6.08
2019-01-19T14:13:30.275Z,6.08
2019-01-19T14:16:09.697Z,6.14
2019-01-19T14:20:49.084Z,6.11
2019-01-19T14:21:58.788Z,6.11
2019-01-19T14:29:46.660Z,6.07
2019-01-19T14:32:01.697Z,5.99
2019-01-19T14:33:16.176Z,5.83
2019-01-19T14:35:31.185Z,5.89
2019-01-19T14:37:58.568Z,5.87
2019-01-19T14:39:08.185Z,5.86
2019-01-19T14:40:24.996Z,5.83
2019-01-19T14:42:45.053Z,5.81
2019-01-19T14:49:55.471Z,5.51
2019-01-19T14:51:01.936Z,5.50
2019-01-19T14:53:28.060Z,5.34
2019-01-19T14:56:53.012Z,5.16
2019-01-19T15:02:42.889Z,4.85
2019-01-19T15:07:40.110Z,4.76
2019-01-19T15:08:49.797Z,4.80
2019-01-19T15:13:17.287Z,4.58
2019-01-19T15:14:23.740Z,4.54
2019-01-19T15:16:36.869Z,4.51
2019-01-19T15:17:45.120Z,4.43
2019-01-19T15:23:34.466Z,4.31
2019-01-19T15:30:30.044Z,4.19
2019-01-19T15:32:46.024Z,4.14
2019-01-19T15:38:44.473Z,4.10
2019-01-19T15:41:04.563Z,3.99
2019-01-19T15:43:19.899Z,3.98
2019-01-19T15:51:09.699Z,3.90
2019-01-19T15:55:18.350Z,3.67
2019-01-19T15:57:30.695Z,3.67
2019-01-19T15:58:36.236Z,3.69
2019-01-19T16:03:36.592Z,3.57
2019-01-19T16:04:44.055Z,3.58
2019-01-19T16:05:52.399Z,3.52
2019-01-19T16:06:58.832Z,3.46
2019-01-19T16:09:10.115Z,3.48
2019-01-19T16:12:37.881Z,3.48
2019-01-19T16:13:47.335Z,3.41
2019-01-19T16:19:17.747Z,3.42
2019-01-19T16:22:57.252Z,3.25
2019-01-19T16:26:36.197Z,3.14
2019-01-19T16:27:42.717Z,3.10
2019-01-19T16:31:02.762Z,3.12
2019-01-19T16:32:21.073Z,3.11
2019-01-19T16:39:15.892Z,2.89
2019-01-19T16:47:49.573Z,2.83
2019-01-19T16:50:06.694Z,2.83
2019-01-19T16:54:47.151Z,2.76
2019-01-19T16:55:56.515Z,2.72
2019-01-19T16:58:12.516Z,2.73
2019-01-19T16:59:18.063Z,2.72
2019-01-19T17:05:36.586Z,2.63
2019-01-19T17:06:44.191Z,2.61
2019-01-19T17:11:57.768Z,2.53
2019-01-19T17:13:04.051Z,2.52
2019-01-19T17:14:15.466Z,2.53
2019-01-19T17:15:25.007Z,2.54
2019-01-19T17:16:34.419Z,2.52
2019-01-19T17:22:22.787Z,2.38
2019-01-19T17:24:40.020Z,2.40
2019-01-19T17:31:35.140Z,2.32
2019-01-19T17:38:51.775Z,2.26
2019-01-19T17:39:58.223Z,2.26
2019-01-19T17:42:20.399Z,2.24
2019-01-19T17:45:40.255Z,2.22
2019-01-19T17:48:02.268Z,2.21
2019-01-19T17:49:08.741Z,2.18
2019-01-19T17:50:15.047Z,2.17
2019-01-19T17:52:31.400Z,2.19
2019-01-19T17:53:41.698Z,2.16
2019-01-19T17:55:59.913Z,2.14
2019-01-19T17:57:21.329Z,2.14
2019-01-19T17:58:30.693Z,2.14
2019-01-19T17:59:38.041Z,2.12
2019-01-19T18:00:49.047Z,2.10
2019-01-19T18:01:56.262Z,2.09
2019-01-19T18:07:47.443Z,2.10
2019-01-19T18:10:05.560Z,2.08
2019-01-19T18:11:14.900Z,2.05
2019-01-19T18:12:21.081Z,2.03
2019-01-19T18:15:41.134Z,2.02
2019-01-19T18:19:04.360Z,1.98
2019-01-19T18:21:41.204Z,2.01
2019-01-19T18:22:47.608Z,2.01
2019-01-19T18:26:08.553Z,2.00
2019-01-19T18:36:41.420Z,1.90
2019-01-19T18:37:58.834Z,1.86
2019-01-19T18:39:08.336Z,1.82
2019-01-19T18:40:22.828Z,1.82
2019-01-19T18:41:29.128Z,1.81
2019-01-19T18:42:36.490Z,1.81
2019-01-19T18:44:51.906Z,1.82
2019-01-19T18:50:35.254Z,1.75
2019-01-19T18:52:47.348Z,1.75
2019-01-19T18:56:43.184Z,1.70
2019-01-19T19:01:17.087Z,1.66
2019-01-19T19:02:23.434Z,1.66
2019-01-19T19:03:39.706Z,1.65
2019-01-19T19:07:00.500Z,1.63
2019-01-19T19:08:06.806Z,1.62
2019-01-19T19:09:14.974Z,1.60
2019-01-19T19:12:54.803Z,1.60
2019-01-19T19:16:27.691Z,1.52
2019-01-19T19:17:35.899Z,1.51
2019-01-19T19:18:45.224Z,1.51
2019-01-19T19:27:23.849Z,1.45
2019-01-19T19:33:11.371Z,1.44
2019-01-19T19:35:26.395Z,1.37
2019-01-19T19:38:12.463Z,1.37
2019-01-19T19:39:22.032Z,1.35
2019-01-19T19:46:03.106Z,1.31
2019-01-19T19:49:53.440Z,1.31
2019-01-19T19:52:06.204Z,1.29
2019-01-19T19:54:13.250Z,1.30
2019-01-19T19:55:16.603Z,1.28
2019-01-19T19:59:29.472Z,1.28
2019-01-19T20:01:36.495Z,1.26
2019-01-19T20:04:47.828Z,1.24
2019-01-19T20:05:51.676Z,1.23
2019-01-19T20:09:04.743Z,1.17
2019-01-19T20:10:16.817Z,1.16
2019-01-19T20:12:19.788Z,1.18
2019-01-19T20:13:23.735Z,1.15
2019-01-19T20:14:27.644Z,1.17
2019-01-19T20:20:47.776Z,1.15
2019-01-19T20:21:52.665Z,1.14
2019-01-19T20:23:59.724Z,1.13
2019-01-19T20:26:08.672Z,1.09
2019-01-19T20:28:15.788Z,1.05
2019-01-19T20:35:39.725Z,1.03
2019-01-19T20:36:43.577Z,1.02
2019-01-19T20:37:47.434Z,1.03
2019-01-19T20:39:54.956Z,1.01
2019-01-19T20:42:02.009Z,1.01
2019-01-19T20:43:05.865Z,0.98
2019-01-19T20:50:36.348Z,0.96
2019-01-19T20:52:43.410Z,0.96
2019-01-19T20:53:47.265Z,0.95
2019-01-19T20:54:51.138Z,0.93
2019-01-19T20:55:55.037Z,0.93
2019-01-19T20:58:02.091Z,0.92
2019-01-19T21:07:38.751Z,0.86
2019-01-19T21:08:43.609Z,0.86
2019-01-19T21:09:47.457Z,0.86
2019-01-19T21:10:51.324Z,0.84
2019-01-19T21:12:59.233Z,0.83
2019-01-19T21:14:04.033Z,0.84
2019-01-19T21:15:09.626Z,0.84
2019-01-19T21:18:19.837Z,0.80
2019-01-19T21:19:23.707Z,0.80
2019-01-19T21:22:33.924Z,0.78
2019-01-19T21:26:47.583Z,0.77
2019-01-19T21:28:54.580Z,0.75
2019-01-19T21:29:58.431Z,0.75
2019-01-19T21:32:05.486Z,0.75
2019-01-19T21:33:09.345Z,0.73
2019-01-19T21:34:13.912Z,0.72
2019-01-19T21:35:17.933Z,0.72
2019-01-19T21:36:21.783Z,0.73
2019-01-19T21:37:25.635Z,0.71
2019-01-19T21:38:29.496Z,0.69
2019-01-19T21:39:33.372Z,0.70
2019-01-19T21:40:39.047Z,0.68
2019-01-19T21:41:43.064Z,0.70
2019-01-19T21:42:46.929Z,0.70
2019-01-19T21:44:53.969Z,0.68
2019-01-19T21:45:57.818Z,0.75
2019-01-19T21:47:01.717Z,0.80
2019-01-19T21:50:11.939Z,0.85
2019-01-19T21:51:15.843Z,0.82
2019-01-19T21:52:19.759Z,0.77
2019-01-19T21:57:37.107Z,0.67
2019-01-19T21:58:40.993Z,0.67
2019-01-19T21:59:44.848Z,0.67
2019-01-19T22:01:52.040Z,0.65
2019-01-19T22:11:22.548Z,0.56
2019-01-19T22:13:30.033Z,0.53
2019-01-19T22:16:40.795Z,0.50
2019-01-19T22:17:44.660Z,0.48
2019-01-19T22:21:58.077Z,0.48
2019-01-19T22:24:05.468Z,0.46
2019-01-19T22:27:15.713Z,0.44
2019-01-19T22:30:26.861Z,0.41
2019-01-19T22:32:34.552Z,0.38
2019-01-19T22:33:38.413Z,0.35
2019-01-19T22:34:42.280Z,0.36
2019-01-19T22:36:49.316Z,0.36
2019-01-19T22:37:53.190Z,0.34
2019-01-19T22:38:57.056Z,0.34
2019-01-19T22:40:01.202Z,0.35
2019-01-19T22:43:11.516Z,0.33
2019-01-19T22:47:24.908Z,0.31
2019-01-19T22:48:28.761Z,0.30
2019-01-19T22:53:46.353Z,0.29
2019-01-19T22:55:53.720Z,0.26
2019-01-19T22:56:57.639Z,0.24
2019-01-19T22:58:01.503Z,0.24
2019-01-19T22:59:05.360Z,0.24
2019-01-19T23:00:19.701Z,0.23
2019-01-19T23:01:26.823Z,0.23
2019-01-19T23:02:30.682Z,0.23
2019-01-19T23:03:34.544Z,0.23
2019-01-19T23:04:38.401Z,0.22
2019-01-19T23:08:51.795Z,0.19
2019-01-19T23:12:02.012Z,0.17
2019-01-19T23:14:09.036Z,0.15
2019-01-19T23:15:12.983Z,0.14
2019-01-19T23:16:17.086Z,0.15
2019-01-19T23:17:20.948Z,0.15
2019-01-19T23:19:29.100Z,0.14
2019-01-19T23:21:36.126Z,0.12
2019-01-19T23:23:43.164Z,0.11
2019-01-19T23:25:50.230Z,0.10
2019-01-19T23:29:00.439Z,0.09
2019-01-19T23:31:09.148Z,0.08
2019-01-19T23:32:13.018Z,0.08
2019-01-19T23:33:16.891Z,0.07
2019-01-19T23:37:30.393Z,0.02
2019-01-19T23:38:34.280Z,0.02
2019-01-19T23:39:38.148Z,0.02
2019-01-19T23:44:55.735Z,-0.02
2019-01-19T23:45:59.614Z,-0.05
2019-01-19T23:48:07.380Z,-0.03
2019-01-19T23:50:14.426Z,-0.05
2019-01-19T23:51:18.295Z,-0.05
2019-01-19T23:58:41.611Z,-0.09
